createdAt,value
2017-08-20T00:01:09.563Z,16.30
2017-08-20T00:03:37.074Z,16.20
2017-08-20T00:06:04.572Z,16.30
2017-08-20T00:08:32.077Z,16.30
2017-08-20T00:13:33.320Z,16.20
2017-08-20T00:16:00.811Z,16.30
2017-08-20T00:18:28.313Z,16.30
2017-08-20T00:20:55.804Z,16.20
2017-08-20T00:23:23.296Z,16.00
2017-08-20T00:25:50.776Z,15.90
2017-08-20T00:28:18.271Z,16.00
2017-08-20T00:30:45.744Z,15.90
2017-08-20T00:33:13.252Z,15.90
2017-08-20T00:35:40.733Z,15.90
2017-08-20T00:38:08.232Z,15.80
2017-08-20T00:40:35.712Z,15.80
2017-08-20T00:43:03.223Z,15.90
2017-08-20T00:45:30.744Z,15.80
2017-08-20T00:47:58.224Z,15.60
2017-08-20T00:50:26.511Z,15.60
2017-08-20T00:52:53.995Z,15.50
2017-08-20T00:55:21.492Z,15.60
2017-08-20T00:57:48.976Z,15.50
2017-08-20T01:00:16.472Z,15.50
2017-08-20T01:02:43.957Z,15.40
2017-08-20T01:05:11.453Z,15.20
2017-08-20T01:07:38.945Z,15.30
2017-08-20T01:10:06.443Z,15.40
2017-08-20T01:12:33.920Z,15.50
2017-08-20T01:15:01.418Z,15.40
2017-08-20T01:17:28.903Z,15.30
2017-08-20T01:19:56.404Z,15.20
2017-08-20T01:22:23.888Z,15.30
2017-08-20T01:24:51.388Z,15.40
2017-08-20T01:27:18.872Z,15.50
2017-08-20T01:29:46.371Z,15.60
2017-08-20T01:32:13.847Z,15.60
2017-08-20T01:34:41.349Z,15.50
2017-08-20T01:37:09.588Z,15.20
2017-08-20T01:39:37.092Z,15.20
2017-08-20T01:42:04.573Z,15.30
2017-08-20T01:44:32.089Z,15.20
2017-08-20T01:46:59.596Z,15.10
2017-08-20T01:49:27.076Z,15.20
2017-08-20T01:51:54.571Z,15.20
2017-08-20T01:54:22.056Z,15.10
2017-08-20T01:56:49.551Z,15.00
2017-08-20T01:59:17.800Z,15.00
2017-08-20T02:01:46.210Z,15.10
2017-08-20T02:04:13.696Z,15.00
2017-08-20T02:06:41.191Z,15.20
2017-08-20T02:09:08.685Z,15.10
2017-08-20T02:11:36.193Z,15.20
2017-08-20T02:14:03.674Z,15.20
2017-08-20T02:16:31.184Z,15.20
2017-08-20T02:18:58.664Z,15.20
2017-08-20T02:21:26.165Z,15.20
2017-08-20T02:23:53.645Z,15.30
2017-08-20T02:26:21.144Z,15.30
2017-08-20T02:28:48.623Z,15.30
2017-08-20T02:31:16.887Z,15.40
2017-08-20T02:33:44.380Z,15.40
2017-08-20T02:36:11.880Z,15.40
2017-08-20T02:38:39.468Z,15.40
2017-08-20T02:41:06.967Z,15.50
2017-08-20T02:43:35.212Z,15.60
2017-08-20T02:46:02.737Z,15.60
2017-08-20T02:48:30.252Z,15.40
2017-08-20T02:50:57.736Z,15.50
2017-08-20T02:53:26.025Z,15.40
2017-08-20T02:55:53.511Z,15.30
2017-08-20T02:58:21.011Z,15.20
2017-08-20T03:00:48.588Z,15.00
2017-08-20T03:03:16.083Z,15.10
2017-08-20T03:05:43.572Z,15.20
2017-08-20T03:08:11.075Z,15.20
2017-08-20T03:10:38.559Z,15.30
2017-08-20T03:13:06.060Z,15.30
2017-08-20T03:15:33.545Z,15.20
2017-08-20T03:18:01.044Z,15.10
2017-08-20T03:20:29.288Z,15.20
2017-08-20T03:22:57.551Z,15.00
2017-08-20T03:25:25.037Z,15.00
2017-08-20T03:27:52.539Z,14.80
2017-08-20T03:30:20.790Z,14.60
2017-08-20T03:32:51.299Z,14.50
2017-08-20T03:35:18.780Z,14.30
2017-08-20T03:37:46.280Z,14.10
2017-08-20T03:40:13.765Z,14.10
2017-08-20T03:42:41.259Z,14.00
2017-08-20T03:45:08.745Z,14.10
2017-08-20T03:47:36.227Z,14.20
2017-08-20T03:50:03.728Z,14.20
2017-08-20T03:52:31.212Z,14.20
2017-08-20T03:54:58.711Z,14.30
2017-08-20T03:57:26.186Z,14.40
2017-08-20T03:59:53.691Z,14.30
2017-08-20T04:02:21.166Z,14.10
2017-08-20T04:04:48.660Z,14.00
2017-08-20T04:07:16.143Z,14.10
2017-08-20T04:09:43.639Z,14.00
2017-08-20T04:12:11.120Z,13.90
2017-08-20T04:14:38.621Z,13.90
2017-08-20T04:17:06.095Z,14.00
2017-08-20T04:19:33.601Z,14.20
2017-08-20T04:22:01.092Z,14.20
2017-08-20T04:24:28.600Z,14.30
2017-08-20T04:26:56.849Z,14.00
2017-08-20T04:29:24.348Z,14.00
2017-08-20T04:31:51.832Z,14.10
2017-08-20T04:34:19.324Z,13.90
2017-08-20T04:36:46.808Z,14.00
2017-08-20T04:39:14.318Z,13.90
2017-08-20T04:41:41.800Z,13.90
2017-08-20T04:44:09.295Z,13.90
2017-08-20T04:46:36.774Z,13.90
2017-08-20T04:49:04.275Z,13.90
2017-08-20T04:51:31.758Z,14.00
2017-08-20T04:53:59.236Z,14.00
2017-08-20T04:56:26.743Z,13.90
2017-08-20T04:58:54.228Z,13.90
2017-08-20T05:01:21.727Z,13.80
2017-08-20T05:03:49.213Z,13.70
2017-08-20T05:06:16.717Z,13.60
2017-08-20T05:08:44.197Z,13.70
2017-08-20T05:11:11.705Z,13.70
2017-08-20T05:13:39.183Z,13.60
2017-08-20T05:16:06.684Z,13.50
2017-08-20T05:18:34.169Z,13.60
2017-08-20T05:21:01.677Z,13.60
2017-08-20T05:23:29.161Z,13.70
2017-08-20T05:25:56.657Z,13.70
2017-08-20T05:28:24.141Z,13.70
2017-08-20T05:30:51.646Z,13.60
2017-08-20T05:33:19.128Z,13.50
2017-08-20T05:35:46.622Z,13.60
2017-08-20T05:38:14.095Z,13.70
2017-08-20T05:40:41.592Z,13.60
2017-08-20T05:43:09.072Z,13.60
2017-08-20T05:45:36.583Z,13.80
2017-08-20T05:48:04.064Z,13.80
2017-08-20T05:50:31.567Z,13.90
2017-08-20T05:52:59.061Z,14.00
2017-08-20T05:55:26.552Z,14.00
2017-08-20T05:57:54.047Z,14.10
2017-08-20T06:00:21.528Z,14.10
2017-08-20T06:02:49.028Z,14.00
2017-08-20T06:05:16.524Z,14.10
2017-08-20T06:07:44.025Z,14.30
2017-08-20T06:10:11.513Z,14.30
2017-08-20T06:12:39.015Z,14.40
2017-08-20T06:15:06.498Z,14.40
2017-08-20T06:17:34.470Z,14.50
2017-08-20T06:20:01.947Z,14.50
2017-08-20T06:22:29.471Z,14.60
2017-08-20T06:24:56.948Z,14.60
2017-08-20T06:27:24.448Z,14.60
2017-08-20T06:29:51.928Z,14.60
2017-08-20T06:32:19.436Z,14.70
2017-08-20T06:34:47.684Z,14.90
2017-08-20T06:37:15.188Z,14.90
2017-08-20T06:39:42.664Z,15.00
2017-08-20T06:42:10.928Z,15.20
2017-08-20T06:44:38.417Z,15.20
2017-08-20T06:47:05.934Z,15.20
2017-08-20T06:49:33.407Z,15.40
2017-08-20T06:52:00.888Z,15.50
2017-08-20T06:54:28.389Z,15.50
2017-08-20T06:56:55.870Z,15.60
2017-08-20T06:59:23.368Z,15.60
2017-08-20T07:01:50.845Z,15.70
2017-08-20T07:04:18.351Z,15.80
2017-08-20T07:06:45.835Z,15.90
2017-08-20T07:09:13.343Z,16.50
2017-08-20T07:11:40.835Z,17.30
2017-08-20T07:14:09.100Z,18.50
2017-08-20T07:16:37.347Z,19.20
2017-08-20T07:19:04.852Z,19.10
2017-08-20T07:21:32.331Z,19.80
2017-08-20T07:23:59.840Z,19.70
2017-08-20T07:26:27.324Z,19.10
2017-08-20T07:28:55.585Z,19.20
2017-08-20T07:31:23.057Z,19.10
2017-08-20T07:33:50.552Z,18.70
2017-08-20T07:36:18.028Z,18.50
2017-08-20T07:38:45.532Z,18.60
2017-08-20T07:41:13.012Z,18.50
2017-08-20T07:43:40.515Z,18.40
2017-08-20T07:46:07.997Z,18.70
2017-08-20T07:48:35.485Z,18.70
2017-08-20T07:51:02.989Z,18.40
2017-08-20T07:53:30.467Z,18.70
2017-08-20T07:55:57.959Z,18.30
2017-08-20T07:58:26.203Z,18.50
2017-08-20T08:00:53.705Z,18.50
2017-08-20T08:03:21.188Z,18.80
2017-08-20T08:05:48.684Z,19.00
2017-08-20T08:08:16.160Z,19.10
2017-08-20T08:10:43.665Z,19.40
2017-08-20T08:13:11.148Z,19.70
2017-08-20T08:15:38.644Z,19.60
2017-08-20T08:18:06.132Z,20.00
2017-08-20T08:20:33.630Z,20.20
2017-08-20T08:23:01.112Z,20.70
2017-08-20T08:25:28.615Z,21.00
2017-08-20T08:27:56.103Z,20.60
2017-08-20T08:30:23.595Z,20.90
2017-08-20T08:32:51.081Z,20.80
2017-08-20T08:35:18.575Z,20.70
2017-08-20T08:37:46.055Z,20.60
2017-08-20T08:40:13.556Z,20.30
2017-08-20T08:42:41.035Z,20.50
2017-08-20T08:45:08.544Z,19.90
2017-08-20T08:47:36.048Z,19.90
2017-08-20T08:50:04.321Z,19.90
2017-08-20T08:52:31.811Z,19.90
2017-08-20T08:54:59.292Z,20.10
2017-08-20T08:57:26.799Z,20.30
2017-08-20T08:59:54.285Z,20.40
2017-08-20T09:02:21.787Z,20.40
2017-08-20T09:04:49.268Z,20.30
2017-08-20T09:07:17.544Z,19.70
2017-08-20T09:09:45.028Z,19.70
2017-08-20T09:12:12.533Z,19.40
2017-08-20T09:14:40.013Z,19.20
2017-08-20T09:17:07.524Z,19.30
2017-08-20T09:19:37.605Z,19.50
2017-08-20T09:22:05.872Z,19.50
2017-08-20T09:24:34.115Z,19.60
2017-08-20T09:27:01.617Z,19.50
2017-08-20T09:29:29.095Z,19.80
2017-08-20T09:31:56.595Z,19.80
2017-08-20T09:34:24.071Z,20.00
2017-08-20T09:36:51.576Z,20.20
2017-08-20T09:39:19.064Z,20.30
2017-08-20T09:41:46.564Z,20.30
2017-08-20T09:44:14.058Z,20.50
2017-08-20T09:46:42.337Z,20.40
2017-08-20T09:49:09.819Z,20.40
2017-08-20T09:51:37.307Z,20.00
2017-08-20T09:54:05.579Z,20.40
2017-08-20T09:56:33.057Z,20.40
2017-08-20T09:59:00.563Z,20.70
2017-08-20T10:01:28.808Z,21.00
2017-08-20T10:03:57.067Z,21.10
2017-08-20T10:06:25.320Z,20.60
2017-08-20T10:08:52.821Z,20.50
2017-08-20T10:11:20.311Z,20.70
2017-08-20T10:13:47.809Z,20.60
2017-08-20T10:16:15.296Z,20.90
2017-08-20T10:18:43.569Z,21.30
2017-08-20T10:21:11.820Z,21.10
2017-08-20T10:23:40.089Z,21.10
2017-08-20T10:26:07.576Z,21.10
2017-08-20T10:28:35.075Z,21.30
2017-08-20T10:31:02.552Z,21.50
2017-08-20T10:33:30.051Z,21.80
2017-08-20T10:35:58.295Z,21.80
2017-08-20T10:38:25.806Z,21.80
2017-08-20T10:40:53.289Z,21.90
2017-08-20T10:43:20.787Z,21.90
2017-08-20T10:45:48.263Z,21.80
2017-08-20T10:48:15.755Z,21.70
2017-08-20T10:50:43.237Z,21.80
2017-08-20T10:53:10.759Z,21.80
2017-08-20T10:55:38.304Z,21.80
2017-08-20T10:58:05.783Z,21.90
2017-08-20T11:00:33.279Z,22.10
2017-08-20T11:03:00.767Z,22.10
2017-08-20T11:05:28.258Z,22.20
2017-08-20T11:07:55.741Z,22.10
2017-08-20T11:10:23.236Z,22.20
2017-08-20T11:12:50.713Z,22.30
2017-08-20T11:15:18.212Z,22.40
2017-08-20T11:17:45.712Z,22.40
2017-08-20T11:20:13.208Z,22.30
2017-08-20T11:22:40.691Z,22.30
2017-08-20T11:25:08.188Z,22.20
2017-08-20T11:27:35.675Z,22.20
2017-08-20T11:30:03.176Z,22.00
2017-08-20T11:32:30.662Z,22.10
2017-08-20T11:34:58.172Z,22.20
2017-08-20T11:37:25.684Z,22.20
2017-08-20T11:39:53.952Z,22.10
2017-08-20T11:42:21.435Z,22.10
2017-08-20T11:44:48.936Z,22.10
2017-08-20T11:47:16.424Z,22.00
2017-08-20T11:49:43.916Z,22.00
2017-08-20T11:52:11.428Z,21.90
2017-08-20T11:54:38.936Z,21.80
2017-08-20T11:57:06.412Z,21.80
2017-08-20T11:59:33.887Z,21.80
2017-08-20T12:02:01.380Z,21.70
2017-08-20T12:04:28.864Z,21.70
2017-08-20T12:06:56.360Z,21.70
2017-08-20T12:09:23.840Z,21.70
2017-08-20T12:11:51.348Z,21.60
2017-08-20T12:14:18.831Z,21.60
2017-08-20T12:16:46.335Z,21.60
2017-08-20T12:19:13.810Z,21.60
2017-08-20T12:21:42.068Z,21.50
2017-08-20T12:24:09.544Z,21.50
2017-08-20T12:26:37.040Z,21.50
2017-08-20T12:29:04.520Z,21.50
2017-08-20T12:31:32.015Z,21.40
2017-08-20T12:33:59.487Z,21.40
2017-08-20T12:36:27.755Z,21.50
2017-08-20T12:38:55.235Z,21.50
2017-08-20T12:41:22.740Z,21.50
2017-08-20T12:43:50.217Z,21.40
2017-08-20T12:46:17.715Z,21.40
2017-08-20T12:48:45.955Z,21.10
2017-08-20T12:51:13.462Z,21.10
2017-08-20T12:53:40.935Z,21.00
2017-08-20T12:56:08.456Z,21.10
2017-08-20T12:58:35.940Z,21.10
2017-08-20T13:01:04.187Z,21.00
2017-08-20T13:03:32.452Z,21.10
2017-08-20T13:05:59.941Z,21.10
2017-08-20T13:08:27.448Z,21.10
2017-08-20T13:10:55.696Z,21.10
2017-08-20T13:13:23.996Z,21.10
2017-08-20T13:15:51.545Z,21.00
2017-08-20T13:18:19.060Z,21.00
2017-08-20T13:20:47.307Z,21.10
2017-08-20T13:23:14.806Z,21.00
2017-08-20T13:25:42.304Z,20.90
2017-08-20T13:28:09.804Z,20.90
2017-08-20T13:30:37.281Z,20.80
2017-08-20T13:33:05.543Z,20.70
2017-08-20T13:35:33.789Z,20.60
2017-08-20T13:38:01.303Z,20.50
2017-08-20T13:40:28.789Z,20.60
2017-08-20T13:42:56.301Z,20.60
2017-08-20T13:45:23.771Z,20.70
2017-08-20T13:47:52.040Z,20.50
2017-08-20T13:50:19.510Z,20.50
2017-08-20T13:52:47.012Z,20.50
2017-08-20T13:55:15.256Z,20.50
2017-08-20T13:57:42.777Z,20.40
2017-08-20T14:00:10.255Z,20.40
2017-08-20T14:02:37.736Z,20.50
2017-08-20T14:05:05.237Z,20.50
2017-08-20T14:07:33.533Z,20.60
2017-08-20T14:10:01.087Z,20.60
2017-08-20T14:12:28.750Z,20.70
2017-08-20T14:14:56.259Z,20.70
2017-08-20T14:17:23.745Z,20.60
2017-08-20T14:19:51.252Z,20.60
2017-08-20T14:22:18.742Z,20.50
2017-08-20T14:24:46.637Z,20.60
2017-08-20T14:27:14.107Z,20.60
2017-08-20T14:29:41.612Z,20.60
2017-08-20T14:32:09.856Z,20.60
2017-08-20T14:34:38.115Z,20.70
2017-08-20T14:37:06.360Z,20.60
2017-08-20T14:39:33.872Z,20.60
2017-08-20T14:42:01.352Z,20.60
2017-08-20T14:44:28.852Z,20.70
2017-08-20T14:46:56.327Z,20.70
2017-08-20T14:49:23.842Z,20.60
2017-08-20T14:51:51.317Z,20.60
2017-08-20T14:54:18.817Z,20.60
2017-08-20T14:56:46.304Z,20.70
2017-08-20T14:59:13.807Z,20.80
2017-08-20T15:01:41.292Z,20.80
2017-08-20T15:04:08.789Z,20.80
2017-08-20T15:06:36.271Z,20.80
2017-08-20T15:09:03.766Z,20.90
2017-08-20T15:11:31.268Z,20.80
2017-08-20T15:13:58.748Z,20.70
2017-08-20T15:16:26.244Z,20.70
2017-08-20T15:18:53.719Z,20.60
2017-08-20T15:21:21.228Z,20.70
2017-08-20T15:23:48.711Z,20.60
2017-08-20T15:26:16.224Z,20.60
2017-08-20T15:28:43.704Z,20.50
2017-08-20T15:31:11.199Z,20.60
2017-08-20T15:33:38.677Z,20.60
2017-08-20T15:36:06.174Z,20.50
2017-08-20T15:38:33.665Z,20.50
2017-08-20T15:41:01.167Z,20.50
2017-08-20T15:43:28.668Z,20.50
2017-08-20T15:45:56.166Z,20.40
2017-08-20T15:48:24.412Z,20.50
2017-08-20T15:50:51.912Z,20.40
2017-08-20T15:53:19.399Z,20.50
2017-08-20T15:55:46.896Z,20.60
2017-08-20T15:58:14.368Z,20.70
2017-08-20T16:00:41.864Z,20.80
2017-08-20T16:03:09.344Z,20.70
2017-08-20T16:05:36.847Z,20.70
2017-08-20T16:08:04.347Z,20.70
2017-08-20T16:10:32.617Z,20.80
2017-08-20T16:13:00.123Z,20.70
2017-08-20T16:15:27.611Z,20.70
2017-08-20T16:17:55.103Z,20.70
2017-08-20T16:20:22.583Z,20.80
2017-08-20T16:22:50.080Z,20.80
2017-08-20T16:25:17.565Z,20.70
2017-08-20T16:27:45.067Z,20.80
2017-08-20T16:30:12.556Z,20.80
2017-08-20T16:32:40.056Z,20.80
2017-08-20T16:35:07.539Z,20.80
2017-08-20T16:37:35.825Z,20.80
2017-08-20T16:40:03.304Z,20.70
2017-08-20T16:42:30.852Z,20.80
2017-08-20T16:44:58.332Z,20.80
2017-08-20T16:47:26.591Z,20.70
2017-08-20T16:49:54.866Z,20.60
2017-08-20T16:52:22.391Z,20.50
2017-08-20T16:54:49.994Z,20.50
2017-08-20T16:57:17.565Z,20.50
2017-08-20T16:59:45.040Z,20.50
2017-08-20T17:02:12.541Z,20.40
2017-08-20T17:04:40.032Z,20.40
2017-08-20T17:07:07.512Z,20.40
2017-08-20T17:09:35.008Z,20.40
2017-08-20T17:12:02.499Z,20.30
2017-08-20T17:14:30.004Z,20.30
2017-08-20T17:16:58.814Z,20.00
2017-08-20T17:19:26.458Z,20.00
2017-08-20T17:21:53.944Z,19.90
2017-08-20T17:24:22.213Z,19.90
2017-08-20T17:26:50.452Z,19.90
2017-08-20T17:29:17.944Z,19.80
2017-08-20T17:31:45.423Z,19.90
2017-08-20T17:34:12.916Z,19.60
2017-08-20T17:36:40.405Z,19.70
2017-08-20T17:39:07.907Z,19.70
2017-08-20T17:41:35.388Z,19.70
2017-08-20T17:44:02.895Z,19.70
2017-08-20T17:46:30.375Z,19.80
2017-08-20T17:48:57.881Z,19.60
2017-08-20T17:51:25.360Z,19.70
2017-08-20T17:53:52.860Z,19.60
2017-08-20T17:56:20.340Z,19.60
2017-08-20T17:58:47.855Z,19.60
2017-08-20T18:01:15.345Z,19.60
2017-08-20T18:03:42.823Z,19.50
2017-08-20T18:06:10.325Z,19.40
2017-08-20T18:08:37.801Z,19.40
2017-08-20T18:11:05.304Z,19.30
2017-08-20T18:13:32.785Z,19.30
2017-08-20T18:16:00.291Z,19.20
2017-08-20T18:18:27.772Z,19.20
2017-08-20T18:20:55.277Z,19.20
2017-08-20T18:23:22.760Z,19.20
2017-08-20T18:25:50.257Z,19.20
2017-08-20T18:28:17.757Z,19.00
2017-08-20T18:30:45.264Z,18.90
2017-08-20T18:33:12.744Z,19.00
2017-08-20T18:35:40.239Z,19.00
2017-08-20T18:38:08.496Z,19.10
2017-08-20T18:40:35.996Z,19.00
2017-08-20T18:43:03.475Z,19.10
2017-08-20T18:45:30.976Z,19.10
2017-08-20T18:47:58.460Z,19.00
2017-08-20T18:50:25.957Z,18.80
2017-08-20T18:52:53.441Z,18.60
2017-08-20T18:55:20.959Z,18.60
2017-08-20T18:57:48.446Z,18.70
2017-08-20T19:00:16.691Z,18.70
2017-08-20T19:02:44.197Z,18.70
2017-08-20T19:05:11.684Z,18.70
2017-08-20T19:07:39.177Z,18.60
2017-08-20T19:10:06.665Z,18.60
2017-08-20T19:12:34.940Z,18.60
2017-08-20T19:15:03.179Z,18.50
2017-08-20T19:17:30.679Z,18.50
2017-08-20T19:19:58.156Z,18.50
2017-08-20T19:22:25.652Z,18.50
2017-08-20T19:24:53.137Z,18.50
2017-08-20T19:27:20.633Z,18.50
2017-08-20T19:29:48.111Z,18.50
2017-08-20T19:32:15.608Z,18.40
2017-08-20T19:34:43.092Z,18.40
2017-08-20T19:37:10.596Z,18.50
2017-08-20T19:39:38.085Z,18.70
2017-08-20T19:42:05.596Z,18.70
2017-08-20T19:44:33.081Z,18.70
2017-08-20T19:47:00.575Z,18.60
2017-08-20T19:49:28.056Z,18.50
2017-08-20T19:51:55.551Z,18.50
2017-08-20T19:54:23.032Z,18.50
2017-08-20T19:56:50.503Z,18.50
2017-08-20T19:59:18.008Z,18.50
2017-08-20T20:01:45.489Z,18.40
2017-08-20T20:04:13.927Z,18.40
2017-08-20T20:06:41.408Z,18.40
2017-08-20T20:09:09.671Z,18.30
2017-08-20T20:11:37.924Z,18.20
2017-08-20T20:14:06.204Z,18.20
2017-08-20T20:16:33.680Z,18.10
2017-08-20T20:19:01.184Z,18.10
2017-08-20T20:21:28.767Z,18.10
2017-08-20T20:23:56.265Z,18.10
2017-08-20T20:26:24.524Z,18.10
2017-08-20T20:28:52.023Z,18.00
2017-08-20T20:31:19.504Z,18.10
2017-08-20T20:33:47.773Z,17.80
2017-08-20T20:36:15.255Z,17.80
2017-08-20T20:38:42.767Z,17.80
2017-08-20T20:41:10.243Z,17.80
2017-08-20T20:43:37.740Z,17.80
2017-08-20T20:46:05.979Z,18.00
2017-08-20T20:48:33.482Z,17.90
2017-08-20T20:51:00.960Z,18.00
2017-08-20T20:53:28.461Z,18.00
2017-08-20T20:55:55.936Z,18.00
2017-08-20T20:58:23.420Z,18.00
2017-08-20T21:00:50.920Z,18.00
2017-08-20T21:03:18.400Z,18.00
2017-08-20T21:05:45.909Z,17.90
2017-08-20T21:08:13.391Z,17.80
2017-08-20T21:10:40.883Z,17.80
2017-08-20T21:13:08.372Z,17.90
2017-08-20T21:15:35.883Z,17.80
2017-08-20T21:18:03.360Z,17.70
2017-08-20T21:20:30.856Z,17.80
2017-08-20T21:22:58.341Z,17.80
2017-08-20T21:25:25.849Z,17.80
2017-08-20T21:27:53.332Z,17.80
2017-08-20T21:30:20.839Z,17.70
2017-08-20T21:32:48.315Z,17.70
2017-08-20T21:35:15.890Z,17.70
2017-08-20T21:37:43.372Z,17.70
2017-08-20T21:40:10.872Z,17.60
2017-08-20T21:42:38.353Z,17.70
2017-08-20T21:45:05.853Z,17.60
2017-08-20T21:47:33.345Z,17.60
2017-08-20T21:50:00.848Z,17.60
2017-08-20T21:52:28.323Z,17.50
2017-08-20T21:54:55.819Z,17.40
2017-08-20T21:57:23.300Z,17.40
2017-08-20T21:59:50.779Z,17.40
2017-08-20T22:02:18.280Z,17.40
2017-08-20T22:04:45.755Z,17.40
2017-08-20T22:07:14.019Z,17.40
2017-08-20T22:09:41.496Z,17.40
2017-08-20T22:12:08.999Z,17.50
2017-08-20T22:14:37.243Z,17.50
2017-08-20T22:17:04.740Z,17.40
2017-08-20T22:19:32.220Z,17.40
2017-08-20T22:21:59.720Z,17.30
2017-08-20T22:24:27.198Z,17.20
2017-08-20T22:26:54.700Z,17.10
2017-08-20T22:29:22.183Z,17.00
2017-08-20T22:31:49.685Z,17.00
2017-08-20T22:34:17.169Z,17.00
2017-08-20T22:36:44.666Z,16.90
2017-08-20T22:39:12.147Z,16.80
2017-08-20T22:41:39.647Z,16.70
2017-08-20T22:44:07.127Z,16.70
2017-08-20T22:46:34.627Z,16.80
2017-08-20T22:49:02.119Z,16.90
2017-08-20T22:51:29.621Z,16.80
2017-08-20T22:53:57.100Z,16.90
2017-08-20T22:56:24.579Z,16.80
2017-08-20T22:58:52.843Z,16.60
2017-08-20T23:01:20.323Z,16.50
2017-08-20T23:03:47.817Z,16.50
2017-08-20T23:06:16.077Z,16.50
2017-08-20T23:08:44.335Z,16.80
2017-08-20T23:11:12.579Z,16.90
2017-08-20T23:13:40.075Z,16.80
2017-08-20T23:16:07.559Z,16.80
2017-08-20T23:18:35.050Z,16.70
2017-08-20T23:21:02.532Z,16.70
2017-08-20T23:23:30.039Z,16.70
2017-08-20T23:25:57.515Z,16.70
2017-08-20T23:28:25.008Z,16.70
2017-08-20T23:30:52.484Z,16.60
2017-08-20T23:33:19.988Z,16.60
2017-08-20T23:35:47.476Z,16.60
2017-08-20T23:38:14.977Z,16.50
2017-08-20T23:40:42.452Z,16.50
2017-08-20T23:43:09.948Z,16.40
2017-08-20T23:45:38.189Z,16.50
2017-08-20T23:48:05.686Z,16.50
2017-08-20T23:50:33.163Z,16.70
2017-08-20T23:53:00.656Z,16.70
2017-08-20T23:55:28.131Z,16.80
2017-08-20T23:57:55.648Z,16.80
